Time;durP1;ratioP1;P1;durP2;ratioP2;P2;SDS_P1;SDS_P2;PMS_P1;PMS_P2;Temp;Humidity;BMP_temperature;BMP_pressure;BME280_temperature;BME280_humidity;BME280_pressure;Samples;Min_cycle;Max_cycle;Signal;HPM_P1;HPM_P2
2023/01/12 00:01:46;;;;;;;22.42;4.20;;;7.80;99.90;;;;;;5043869;28;20022;-71
2023/01/12 00:04:12;;;;;;;10.38;2.60;;;7.80;99.90;;;;;;5042661;28;20026;-73
2023/01/12 00:06:38;;;;;;;13.65;3.28;;;7.70;99.90;;;;;;5042361;28;20021;-74
2023/01/12 00:09:08;;;;;;;12.45;3.33;;;7.80;99.90;;;;;;5043882;28;20051;-70
2023/01/12 00:11:36;;;;;;;13.48;3.75;;;7.80;99.90;;;;;;5042178;28;20025;-75
2023/01/12 00:14:02;;;;;;;16.52;3.50;;;7.80;99.90;;;;;;5043919;28;20048;-75
2023/01/12 00:16:37;;;;;;;14.82;3.75;;;7.80;99.90;;;;;;5042220;28;20078;-73
2023/01/12 00:19:12;;;;;;;13.98;3.08;;;7.80;99.90;;;;;;5043800;28;20490;-70
2023/01/12 00:21:58;;;;;;;25.48;3.90;;;7.80;99.90;;;;;;5041742;28;20025;-74
2023/01/12 00:24:33;;;;;;;14.73;3.30;;;7.80;99.90;;;;;;5041627;28;20038;-72
2023/01/12 00:27:07;;;;;;;20.02;3.70;;;7.80;99.90;;;;;;5041823;28;20542;-74
2023/01/12 00:29:36;;;;;;;;;;;7.80;99.90;;;;;;5044232;28;20140;-75
2023/01/12 00:32:04;;;;;;;12.98;3.10;;;7.90;99.90;;;;;;5042089;28;19924;-73
2023/01/12 00:34:30;;;;;;;14.45;2.95;;;7.80;99.90;;;;;;5043388;28;20029;-72
2023/01/12 00:36:55;;;;;;;20.65;2.72;;;7.90;99.90;;;;;;5043417;28;20089;-69
2023/01/12 00:39:21;;;;;;;14.77;3.22;;;7.90;99.90;;;;;;5040586;28;20041;-72
2023/01/12 00:47:24;;;;;;;16.65;3.22;;;7.90;99.90;;;;;;5043091;28;20041;-71
2023/01/12 00:49:51;;;;;;;12.38;3.15;;;7.90;99.90;;;;;;5041504;28;20021;-73
2023/01/12 00:52:22;;;;;;;17.60;3.67;;;7.90;99.90;;;;;;5042470;28;20459;-70
2023/01/12 00:54:48;;;;;;;9.45;2.90;;;7.80;99.90;;;;;;5042673;28;20683;-68
2023/01/12 00:57:14;;;;;;;12.80;3.10;;;7.80;99.90;;;;;;5040725;28;20110;-70
2023/01/12 00:59:40;;;;;;;12.25;3.42;;;7.80;99.90;;;;;;5042810;28;20154;-71
2023/01/12 01:02:07;;;;;;;10.10;3.08;;;7.80;99.90;;;;;;5042445;28;20025;-73
2023/01/12 01:04:34;;;;;;;12.68;3.72;;;7.80;99.90;;;;;;5041770;28;20033;-71
2023/01/12 01:07:00;;;;;;;19.35;4.07;;;7.80;99.90;;;;;;5041202;28;20037;-72
2023/01/12 01:09:26;;;;;;;17.30;3.67;;;7.80;99.90;;;;;;5042091;28;20093;-74
2023/01/12 01:11:52;;;;;;;16.25;3.45;;;7.80;99.90;;;;;;5042347;28;20060;-72
2023/01/12 01:14:17;;;;;;;14.20;3.50;;;7.90;99.90;;;;;;5041908;28;20021;-73
2023/01/12 01:16:43;;;;;;;19.23;3.50;;;7.90;99.90;;;;;;5042545;28;20021;-69
2023/01/12 01:19:09;;;;;;;14.27;3.30;;;7.80;99.90;;;;;;5041199;28;20525;-73
2023/01/12 01:21:35;;;;;;;11.68;3.40;;;7.90;99.90;;;;;;5042340;28;20056;-73
2023/01/12 01:24:00;;;;;;;14.63;4.03;;;7.90;99.90;;;;;;5042558;28;20037;-73
2023/01/12 01:26:29;;;;;;;14.63;3.17;;;7.90;99.90;;;;;;5040424;28;20046;-71
2023/01/12 01:28:55;;;;;;;14.55;4.00;;;7.90;99.90;;;;;;5040101;28;20585;-71
2023/01/12 01:31:24;;;;;;;20.67;3.60;;;7.90;99.90;;;;;;5042337;28;20709;-71
2023/01/12 01:33:50;;;;;;;16.02;3.83;;;7.90;99.90;;;;;;5042210;28;20112;-69
2023/01/12 01:36:19;;;;;;;12.05;3.97;;;7.90;99.90;;;;;;5041647;28;20029;-71
2023/01/12 01:38:55;;;;;;;17.55;4.05;;;7.80;99.90;;;;;;5041781;28;20021;-70
2023/01/12 01:41:27;;;;;;;9.88;3.55;;;7.90;99.90;;;;;;5041569;28;20021;-70
2023/01/12 01:43:59;;;;;;;15.05;3.80;;;7.80;99.90;;;;;;5040391;28;20037;-68
2023/01/12 01:46:40;;;;;;;10.30;2.90;;;7.80;99.90;;;;;;5041432;28;20033;-70
2023/01/12 01:49:23;;;;;;;16.05;2.95;;;7.80;99.90;;;;;;5040970;28;20021;-73
2023/01/12 01:51:52;;;;;;;16.58;3.05;;;7.80;99.90;;;;;;5041481;28;20041;-73
2023/01/12 01:54:17;;;;;;;11.05;2.50;;;7.70;99.90;;;;;;5040559;28;20025;-74
2023/01/12 01:56:44;;;;;;;11.68;2.63;;;7.70;99.90;;;;;;5041982;28;20021;-72
2023/01/12 01:59:18;;;;;;;12.88;2.42;;;7.70;99.90;;;;;;5040396;28;20068;-72
2023/01/12 02:01:45;;;;;;;12.27;2.00;;;7.70;99.90;;;;;;5041548;28;20052;-72
2023/01/12 02:04:10;;;;;;;14.80;2.35;;;7.70;99.90;;;;;;5041601;28;20017;-73
2023/01/12 02:06:36;;;;;;;6.30;1.60;;;7.70;99.90;;;;;;5041480;28;20070;-70
2023/01/12 02:09:26;;;;;;;12.27;2.03;;;7.60;99.90;;;;;;5041826;28;20029;-71
2023/01/12 02:17:34;;;;;;;6.57;1.38;;;7.60;99.90;;;;;;5041552;28;20045;-72
2023/01/12 02:20:00;;;;;;;9.82;2.13;;;7.60;99.90;;;;;;5040156;28;20168;-71
2023/01/12 02:22:35;;;;;;;7.10;1.70;;;7.60;99.90;;;;;;5039932;28;20053;-70
2023/01/12 02:25:46;;;;;;;8.18;2.30;;;7.60;99.90;;;;;;5041419;28;20111;-71
2023/01/12 02:28:49;;;;;;;10.75;2.33;;;7.60;99.90;;;;;;5039551;28;20026;-71
2023/01/12 02:31:33;;;;;;;10.65;2.05;;;7.60;99.90;;;;;;5039967;28;20029;-74
2023/01/12 02:34:31;;;;;;;7.13;2.25;;;7.60;99.90;;;;;;5040088;28;20125;-69
2023/01/12 02:37:22;;;;;;;10.40;2.67;;;7.60;99.90;;;;;;5040123;28;20050;-73
2023/01/12 02:39:57;;;;;;;11.13;3.05;;;7.60;99.90;;;;;;5041239;28;20033;-72
2023/01/12 02:42:42;;;;;;;8.68;2.85;;;7.70;99.90;;;;;;5041311;28;20033;-72
2023/01/12 02:45:17;;;;;;;12.38;3.58;;;7.60;99.90;;;;;;5041372;28;20028;-72
2023/01/12 02:47:49;;;;;;;15.50;3.83;;;7.60;99.90;;;;;;5039876;28;20057;-73
2023/01/12 02:50:33;;;;;;;12.38;3.67;;;7.60;99.90;;;;;;5041127;28;20169;-71
2023/01/12 02:53:06;;;;;;;25.92;4.32;;;7.50;99.90;;;;;;5041229;28;20081;-70
2023/01/12 02:55:37;;;;;;;13.63;3.90;;;7.50;99.90;;;;;;5040120;28;20014;-73
2023/01/12 02:58:09;;;;;;;15.95;4.45;;;7.50;99.90;;;;;;5039587;28;20033;-72
2023/01/12 03:00:42;;;;;;;11.13;4.30;;;7.50;99.90;;;;;;5039908;28;20041;-70
2023/01/12 03:03:07;;;;;;;19.13;4.93;;;7.50;99.90;;;;;;5043173;28;20025;-72
2023/01/12 03:05:33;;;;;;;10.57;4.05;;;7.50;99.90;;;;;;5043590;28;20032;-71
2023/01/12 03:08:02;;;;;;;19.45;4.82;;;7.50;99.90;;;;;;5044683;28;20032;-70
2023/01/12 03:10:38;;;;;;;19.20;5.53;;;7.50;99.90;;;;;;5043371;28;20032;-73
2023/01/12 03:13:09;;;;;;;18.45;5.03;;;7.50;99.90;;;;;;5044630;28;20030;-73
2023/01/12 03:15:40;;;;;;;18.92;5.25;;;7.60;99.90;;;;;;5043273;28;20421;-73
2023/01/12 03:18:13;;;;;;;15.75;4.75;;;7.60;99.90;;;;;;5044648;28;20029;-70
2023/01/12 03:20:47;;;;;;;23.60;6.27;;;7.60;99.90;;;;;;5043261;28;20033;-72
2023/01/12 03:23:28;;;;;;;14.95;5.88;;;7.70;99.90;;;;;;5043500;28;20280;-69
2023/01/12 03:25:59;;;;;;;20.15;6.35;;;7.70;99.90;;;;;;5042843;28;20096;-72
2023/01/12 03:28:29;;;;;;;12.60;4.75;;;7.70;99.90;;;;;;5043916;28;20068;-73
2023/01/12 03:31:07;;;;;;;17.33;4.40;;;7.70;99.90;;;;;;5044024;28;20648;-70
2023/01/12 03:33:33;;;;;;;19.65;5.40;;;7.70;99.90;;;;;;5044688;28;20110;-73
2023/01/12 03:36:15;;;;;;;12.20;4.35;;;7.70;99.90;;;;;;5044322;28;20029;-70
2023/01/12 03:39:15;;;;;;;13.50;4.53;;;7.70;99.90;;;;;;5044182;28;20025;-70
2023/01/12 03:42:06;;;;;;;16.15;4.65;;;7.70;99.90;;;;;;5043842;28;20081;-71
2023/01/12 03:44:59;;;;;;;15.52;4.03;;;7.80;99.90;;;;;;5044431;28;20025;-71
2023/01/12 03:47:29;;;;;;;13.57;4.38;;;7.70;99.90;;;;;;5042844;28;20034;-70
2023/01/12 03:49:59;;;;;;;15.23;4.30;;;7.80;99.90;;;;;;5043810;28;20026;-73
2023/01/12 03:52:27;;;;;;;13.10;3.80;;;7.80;99.90;;;;;;5043965;28;20738;-71
2023/01/12 03:54:56;;;;;;;13.48;5.05;;;7.80;99.90;;;;;;5043891;28;20068;-72
2023/01/12 03:57:22;;;;;;;9.88;3.80;;;7.80;99.90;;;;;;5042336;28;20036;-73
2023/01/12 03:59:48;;;;;;;18.10;4.68;;;7.90;99.90;;;;;;5042562;28;20029;-72
2023/01/12 04:02:13;;;;;;;14.82;5.57;;;7.90;99.90;;;;;;5044147;28;20033;-75
2023/01/12 04:04:39;;;;;;;14.68;5.90;;;7.90;99.90;;;;;;5042242;28;20021;-75
2023/01/12 04:07:05;;;;;;;17.33;6.07;;;8.00;99.90;;;;;;5042592;28;20028;-74
2023/01/12 04:09:30;;;;;;;15.60;6.25;;;8.00;99.90;;;;;;5042449;28;20765;-73
2023/01/12 04:12:11;;;;;;;20.13;7.15;;;8.00;99.90;;;;;;5042316;28;20022;-75
2023/01/12 04:14:44;;;;;;;25.08;7.60;;;8.00;99.90;;;;;;5043789;28;20482;-71
2023/01/12 04:17:15;;;;;;;18.27;6.93;;;8.00;99.90;;;;;;5043792;28;20069;-73
2023/01/12 04:19:41;;;;;;;21.02;7.07;;;7.90;99.90;;;;;;5042948;28;20022;-73
2023/01/12 04:24:55;;;;;;;20.83;7.00;;;7.90;99.90;;;;;;5043196;28;20529;-71
2023/01/12 04:27:21;;;;;;;21.65;6.10;;;7.80;99.90;;;;;;5043330;28;20045;-72
2023/01/12 04:29:47;;;;;;;18.15;5.90;;;7.80;99.90;;;;;;5043259;28;20055;-73
2023/01/12 04:32:13;;;;;;;17.05;5.95;;;7.80;99.90;;;;;;5041906;28;20079;-72
2023/01/12 04:34:39;;;;;;;21.55;7.15;;;7.70;99.90;;;;;;5042963;28;20056;-76
2023/01/12 04:37:05;;;;;;;18.65;7.70;;;7.70;99.90;;;;;;5042064;28;20029;-74
2023/01/12 04:39:30;;;;;;;27.75;7.88;;;7.70;99.90;;;;;;5043245;28;20045;-69
2023/01/12 04:41:56;;;;;;;26.10;7.97;;;7.70;99.90;;;;;;5043175;28;20052;-72
2023/01/12 04:44:21;;;;;;;27.02;6.95;;;7.70;99.90;;;;;;5042938;28;20095;-74
2023/01/12 04:46:48;;;;;;;26.55;8.00;;;7.70;99.90;;;;;;5041679;28;20034;-71
2023/01/12 04:49:13;;;;;;;23.33;7.43;;;7.70;99.90;;;;;;5042983;28;20501;-73
2023/01/12 04:51:39;;;;;;;22.70;7.00;;;7.70;99.90;;;;;;5042386;28;20013;-74
2023/01/12 04:54:05;;;;;;;26.73;8.00;;;7.70;99.90;;;;;;5043169;28;20048;-73
2023/01/12 04:56:31;;;;;;;29.00;6.60;;;7.70;99.90;;;;;;5042938;28;20398;-73
2023/01/12 04:58:59;;;;;;;29.70;7.75;;;7.70;99.90;;;;;;5042821;28;20511;-72
2023/01/12 05:01:26;;;;;;;33.33;7.13;;;7.70;99.90;;;;;;5042109;28;20025;-74
2023/01/12 05:03:54;;;;;;;24.95;6.60;;;7.70;99.90;;;;;;5042686;28;20429;-74
2023/01/12 05:06:21;;;;;;;23.15;7.53;;;7.70;99.90;;;;;;5040831;28;20505;-73
2023/01/12 05:11:30;;;;;;;17.63;5.38;;;7.70;99.90;;;;;;5042734;28;20084;-72
2023/01/12 05:13:56;;;;;;;28.63;6.95;;;7.70;99.90;;;;;;5041128;28;20018;-75
2023/01/12 05:16:23;;;;;;;19.70;6.22;;;7.70;99.90;;;;;;5042618;28;20104;-73
2023/01/12 05:18:49;;;;;;;21.25;5.97;;;7.70;99.90;;;;;;5041237;28;20037;-74
2023/01/12 05:21:16;;;;;;;19.10;5.90;;;7.70;99.90;;;;;;5040846;28;20459;-72
2023/01/12 05:23:43;;;;;;;21.77;5.60;;;7.70;99.90;;;;;;5041876;28;20017;-74
2023/01/12 05:26:09;;;;;;;17.10;5.13;;;7.70;99.90;;;;;;5041588;28;20062;-75
2023/01/12 05:28:34;;;;;;;13.45;5.00;;;7.70;99.90;;;;;;5042008;28;20100;-73
2023/01/12 05:31:09;;;;;;;18.42;4.03;;;7.80;99.90;;;;;;5042272;28;20025;-71
2023/01/12 05:33:36;;;;;;;18.98;5.60;;;7.80;99.90;;;;;;5041929;28;20083;-73
2023/01/12 05:36:06;;;;;;;22.20;6.22;;;7.80;99.90;;;;;;5042070;28;20395;-73
2023/01/12 05:38:32;;;;;;;17.38;6.07;;;7.80;99.90;;;;;;5041847;28;20577;-72
2023/01/12 05:40:59;;;;;;;21.30;6.55;;;7.80;99.90;;;;;;5041872;28;20145;-72
2023/01/12 05:46:10;;;;;;;19.48;5.78;;;7.80;99.90;;;;;;5042134;28;20029;-73
2023/01/12 05:48:35;;;;;;;18.23;5.30;;;7.80;99.90;;;;;;5042208;28;20030;-73
2023/01/12 05:51:02;;;;;;;21.98;6.88;;;7.80;99.90;;;;;;5040733;28;20029;-71
2023/01/12 05:53:28;;;;;;;24.55;6.45;;;7.80;99.90;;;;;;5041799;28;20397;-70
2023/01/12 05:55:54;;;;;;;19.90;6.38;;;7.80;99.90;;;;;;5041358;28;20029;-72
2023/01/12 05:58:20;;;;;;;18.92;5.57;;;7.80;99.90;;;;;;5041520;28;20021;-72
2023/01/12 06:00:45;;;;;;;22.27;5.35;;;7.70;99.90;;;;;;5041172;28;20037;-73
2023/01/12 06:03:11;;;;;;;15.50;4.97;;;7.80;99.90;;;;;;5041733;28;20021;-75
2023/01/12 06:05:37;;;;;;;17.98;5.13;;;7.80;99.90;;;;;;5040268;28;20025;-74
2023/01/12 06:08:03;;;;;;;12.52;4.63;;;7.80;99.90;;;;;;5041825;28;20040;-71
2023/01/12 06:10:29;;;;;;;11.80;4.15;;;7.80;99.90;;;;;;5040388;28;20029;-71
2023/01/12 06:15:38;;;;;;;20.83;5.82;;;7.80;99.90;;;;;;5041622;28;20067;-73
2023/01/12 06:18:04;;;;;;;23.05;5.57;;;7.80;99.90;;;;;;5039284;28;20398;-71
2023/01/12 06:20:30;;;;;;;14.45;4.72;;;7.80;99.90;;;;;;5039662;28;20050;-73
2023/01/12 06:23:00;;;;;;;12.43;3.65;;;7.80;99.90;;;;;;5040242;28;20037;-69
2023/01/12 06:25:25;;;;;;;14.15;3.55;;;7.90;99.90;;;;;;5041166;28;20041;-69
2023/01/12 06:27:51;;;;;;;18.38;4.35;;;7.80;99.90;;;;;;5041214;28;20024;-72
2023/01/12 06:30:17;;;;;;;15.02;5.22;;;7.90;99.90;;;;;;5039913;28;20040;-70
2023/01/12 06:32:42;;;;;;;18.48;5.15;;;7.90;99.90;;;;;;5041485;28;20021;-72
2023/01/12 06:35:08;;;;;;;10.25;4.50;;;7.90;99.90;;;;;;5036432;28;20064;-72
2023/01/12 06:37:34;;;;;;;20.35;4.75;;;7.90;99.90;;;;;;5036278;28;20033;-74
2023/01/12 06:39:59;;;;;;;12.27;3.38;;;7.80;99.90;;;;;;5037099;28;20030;-70
2023/01/12 06:42:28;;;;;;;11.95;3.75;;;7.80;99.90;;;;;;5041669;28;20018;-70
2023/01/12 06:44:59;;;;;;;11.95;3.95;;;7.80;99.90;;;;;;5041021;28;20018;-72
2023/01/12 06:47:26;;;;;;;10.70;3.20;;;7.80;99.90;;;;;;5040967;28;20055;-70
2023/01/12 06:49:52;;;;;;;12.38;3.95;;;7.80;99.90;;;;;;5044229;28;20044;-76
2023/01/12 06:52:19;;;;;;;19.23;4.10;;;7.80;99.90;;;;;;5045226;28;20037;-71
2023/01/12 06:54:45;;;;;;;16.95;3.78;;;7.80;99.90;;;;;;5044993;28;20037;-74
2023/01/12 06:57:10;;;;;;;16.38;3.75;;;7.80;99.90;;;;;;5043590;28;20037;-69
2023/01/12 06:59:37;;;;;;;13.82;2.78;;;7.80;99.90;;;;;;5036749;28;20049;-70
2023/01/12 07:02:21;;;;;;;18.10;3.10;;;7.80;99.90;;;;;;5043010;28;20099;-71
2023/01/12 07:04:47;;;;;;;12.95;4.13;;;7.80;99.90;;;;;;5042065;28;20048;-70
2023/01/12 07:07:13;;;;;;;8.65;2.85;;;7.80;99.90;;;;;;5042109;28;20429;-71
2023/01/12 07:09:38;;;;;;;7.97;2.63;;;7.80;99.90;;;;;;5043190;28;20026;-71
2023/01/12 07:12:04;;;;;;;10.65;3.45;;;7.80;99.90;;;;;;5042172;28;20021;-74
2023/01/12 07:14:30;;;;;;;12.32;2.78;;;7.80;99.90;;;;;;5041923;28;20105;-72
2023/01/12 07:16:55;;;;;;;12.27;3.25;;;7.70;99.90;;;;;;5044194;28;20030;-70
2023/01/12 07:19:21;;;;;;;10.68;3.38;;;7.70;99.90;;;;;;5043450;28;20053;-75
2023/01/12 07:21:49;;;;;;;10.52;3.45;;;7.70;99.90;;;;;;5043205;28;20038;-71
2023/01/12 07:24:15;;;;;;;8.07;3.08;;;7.70;99.90;;;;;;5044427;28;20033;-71
2023/01/12 07:26:40;;;;;;;8.90;2.45;;;7.70;99.90;;;;;;5044504;28;20045;-71
2023/01/12 07:29:06;;;;;;;9.63;3.03;;;7.60;99.90;;;;;;5044603;28;20029;-73
2023/01/12 07:31:32;;;;;;;6.45;2.78;;;7.60;99.90;;;;;;5041728;28;20063;-73
2023/01/12 07:33:58;;;;;;;11.48;3.78;;;7.60;99.90;;;;;;5044551;28;20398;-71
2023/01/12 07:36:24;;;;;;;10.63;3.50;;;7.70;99.90;;;;;;5044492;28;20394;-71
2023/01/12 07:38:53;;;;;;;13.10;3.75;;;7.60;99.90;;;;;;5043510;28;20048;-75
2023/01/12 07:44:03;;;;;;;15.68;3.80;;;7.60;99.90;;;;;;5044280;28;20105;-71
2023/01/12 07:46:29;;;;;;;9.35;4.45;;;7.60;99.90;;;;;;5044321;28;20030;-70
2023/01/12 07:48:55;;;;;;;10.60;3.95;;;7.60;99.90;;;;;;5043718;28;20029;-71
2023/01/12 07:51:20;;;;;;;10.25;3.80;;;7.60;99.90;;;;;;5043892;28;20022;-72
2023/01/12 07:53:47;;;;;;;7.32;3.20;;;7.60;99.90;;;;;;5043963;28;20051;-68
2023/01/12 07:56:14;;;;;;;10.65;4.85;;;7.60;99.90;;;;;;5043879;28;20037;-70
2023/01/12 07:58:41;;;;;;;11.07;3.50;;;7.70;99.90;;;;;;5043894;28;20151;-70
2023/01/12 08:01:07;;;;;;;13.50;3.45;;;7.60;99.90;;;;;;5043598;28;20080;-71
2023/01/12 08:03:33;;;;;;;11.43;4.10;;;7.60;99.90;;;;;;5039038;28;20033;-72
2023/01/12 08:05:59;;;;;;;7.90;2.92;;;7.60;99.90;;;;;;5038981;28;20056;-70
2023/01/12 08:08:25;;;;;;;8.32;4.07;;;7.70;99.90;;;;;;5040026;28;20030;-68
2023/01/12 08:10:51;;;;;;;8.70;4.25;;;7.70;99.90;;;;;;5040467;28;20323;-71
2023/01/12 08:13:21;;;;;;;8.65;4.93;;;7.70;99.90;;;;;;5039875;28;20482;-72
2023/01/12 08:15:50;;;;;;;13.40;4.40;;;7.70;99.90;;;;;;5042523;28;20029;-70
2023/01/12 08:18:26;;;;;;;9.27;4.93;;;7.70;99.90;;;;;;5042444;28;20485;-70
2023/01/12 08:20:53;;;;;;;10.15;5.60;;;7.70;99.90;;;;;;5042383;28;20029;-71
2023/01/12 08:23:26;;;;;;;9.50;4.60;;;7.70;99.90;;;;;;5041765;28;20022;-70
2023/01/12 08:25:57;;;;;;;10.95;5.95;;;7.80;99.90;;;;;;5041461;28;20041;-73
2023/01/12 08:28:49;;;;;;;15.00;7.05;;;7.80;99.90;;;;;;5043234;28;20056;-73
2023/01/12 08:31:17;;;;;;;11.40;5.38;;;7.90;99.90;;;;;;5041120;28;21289;-73
2023/01/12 08:33:43;;;;;;;19.75;6.70;;;7.90;99.90;;;;;;5043210;28;20017;-72
2023/01/12 08:36:12;;;;;;;22.95;6.90;;;7.90;99.90;;;;;;5042367;28;20036;-73
2023/01/12 08:38:38;;;;;;;20.50;8.07;;;8.00;99.90;;;;;;5042928;28;20062;-73
2023/01/12 08:44:00;;;;;;;16.15;6.68;;;8.00;99.90;;;;;;5042983;28;20084;-75
2023/01/12 08:46:27;;;;;;;19.83;7.30;;;8.10;99.90;;;;;;5041851;28;20025;-71
2023/01/12 08:48:52;;;;;;;11.10;6.47;;;8.10;99.90;;;;;;5043162;28;20022;-71
2023/01/12 08:51:18;;;;;;;11.85;5.13;;;8.10;99.90;;;;;;5040759;28;20022;-71
2023/01/12 08:53:44;;;;;;;13.00;5.47;;;8.20;99.90;;;;;;5042930;28;20021;-69
2023/01/12 08:56:10;;;;;;;12.65;5.50;;;8.20;99.90;;;;;;5041945;28;20033;-69
2023/01/12 08:58:36;;;;;;;14.93;5.80;;;8.20;99.90;;;;;;5042547;28;20025;-71
2023/01/12 09:01:10;;;;;;;9.98;5.28;;;8.20;99.90;;;;;;5041849;28;20025;-71
2023/01/12 09:03:37;;;;;;;17.88;6.45;;;8.30;99.90;;;;;;5041420;28;20101;-71
2023/01/12 09:06:09;;;;;;;14.60;5.55;;;8.30;99.90;;;;;;5041638;28;20033;-71
2023/01/12 09:08:35;;;;;;;6.55;3.92;;;8.40;99.90;;;;;;5039956;28;20029;-72
2023/01/12 09:11:05;;;;;;;12.45;4.50;;;8.30;99.90;;;;;;5041688;28;20025;-71
2023/01/12 09:13:33;;;;;;;8.23;3.60;;;8.40;99.90;;;;;;5038251;28;20056;-73
2023/01/12 09:16:07;;;;;;;6.40;4.10;;;8.50;99.90;;;;;;5036451;28;20152;-69
2023/01/12 09:18:33;;;;;;;;;;;8.50;99.90;;;;;;5041398;28;20026;-71
2023/01/12 09:21:03;;;;;;;10.80;4.10;;;8.50;99.90;;;;;;5040999;28;19917;-69
2023/01/12 09:23:29;;;;;;;10.38;4.75;;;8.50;99.90;;;;;;5040956;28;20036;-71
2023/01/12 09:25:55;;;;;;;8.07;3.45;;;8.50;99.90;;;;;;5039245;28;20041;-69
2023/01/12 09:28:21;;;;;;;6.90;3.67;;;8.60;99.90;;;;;;5034996;28;20041;-72
2023/01/12 09:30:46;;;;;;;10.05;4.15;;;8.60;99.90;;;;;;5038583;28;20093;-70
2023/01/12 09:33:12;;;;;;;11.98;4.70;;;8.60;99.90;;;;;;5041132;28;20049;-71
2023/01/12 09:35:38;;;;;;;10.38;4.65;;;8.70;99.90;;;;;;5039985;28;20088;-72
2023/01/12 09:38:04;;;;;;;13.57;6.43;;;8.70;99.90;;;;;;5039623;28;20052;-69
2023/01/12 09:40:30;;;;;;;8.15;4.78;;;8.70;99.90;;;;;;5040811;28;20060;-70
2023/01/12 09:48:26;;;;;;;9.60;4.70;;;8.80;99.90;;;;;;5041004;28;20117;-71
2023/01/12 09:51:11;;;;;;;9.25;5.28;;;8.80;99.90;;;;;;5038594;28;20021;-71
2023/01/12 09:53:40;;;;;;;10.18;3.92;;;8.80;99.90;;;;;;5039225;28;20517;-71
2023/01/12 09:56:28;;;;;;;13.55;5.97;;;8.90;99.90;;;;;;5041507;28;20021;-70
2023/01/12 09:59:06;;;;;;;12.65;4.85;;;9.00;99.90;;;;;;5041510;28;20036;-69
2023/01/12 10:01:33;;;;;;;16.73;4.72;;;9.00;99.90;;;;;;5041481;28;20057;-70
2023/01/12 10:04:01;;;;;;;15.18;4.95;;;9.00;99.90;;;;;;5040234;28;20239;-69
2023/01/12 10:06:27;;;;;;;9.07;4.55;;;9.00;99.90;;;;;;5041041;28;20032;-71
2023/01/12 10:09:01;;;;;;;16.90;5.82;;;9.00;99.90;;;;;;5040729;28;20032;-70
2023/01/12 10:11:33;;;;;;;11.07;4.53;;;9.00;99.90;;;;;;5039727;28;20044;-70
2023/01/12 10:14:23;;;;;;;7.35;3.05;;;9.10;99.90;;;;;;5039908;28;20029;-71
2023/01/12 10:16:54;;;;;;;15.07;5.50;;;9.10;99.90;;;;;;5038556;28;20025;-72
2023/01/12 10:19:58;;;;;;;6.70;3.20;;;9.10;99.90;;;;;;5039179;28;20065;-71
2023/01/12 10:22:38;;;;;;;5.50;3.10;;;9.10;99.90;;;;;;5040434;28;20029;-70
2023/01/12 10:25:31;;;;;;;6.38;2.58;;;9.20;99.90;;;;;;5039649;28;20095;-71
2023/01/12 10:27:59;;;;;;;4.07;2.70;;;9.20;99.90;;;;;;5038562;28;20746;-71
2023/01/12 10:30:33;;;;;;;3.50;2.40;;;9.20;99.90;;;;;;5040590;28;20030;-71
2023/01/12 10:33:16;;;;;;;5.88;3.00;;;9.20;99.90;;;;;;5038962;28;20048;-75
2023/01/12 10:36:00;;;;;;;3.30;2.00;;;9.20;99.90;;;;;;5038572;28;20040;-70
2023/01/12 10:38:31;;;;;;;;;;;9.30;99.90;;;;;;5038518;28;20032;-73
2023/01/12 10:41:09;;;;;;;6.57;3.00;;;9.30;99.90;;;;;;5037922;28;19921;-72
2023/01/12 10:43:36;;;;;;;6.85;3.30;;;9.40;99.90;;;;;;5039584;28;20026;-72
2023/01/12 10:46:05;;;;;;;5.20;2.67;;;9.30;99.90;;;;;;5039782;28;20729;-70
2023/01/12 10:48:32;;;;;;;4.13;3.00;;;9.40;99.90;;;;;;5038858;28;20490;-70
2023/01/12 10:51:23;;;;;;;7.95;2.67;;;9.40;99.90;;;;;;5040170;28;20025;-71
2023/01/12 10:54:07;;;;;;;5.65;3.17;;;9.40;99.90;;;;;;5038454;28;20417;-70
2023/01/12 10:56:40;;;;;;;5.30;3.42;;;9.40;99.90;;;;;;5041211;28;20521;-71
2023/01/12 10:59:12;;;;;;;8.00;4.10;;;9.50;99.90;;;;;;5040462;28;20037;-69
2023/01/12 11:02:05;;;;;;;6.78;2.92;;;9.40;99.90;;;;;;5040881;28;20034;-71
2023/01/12 11:04:38;;;;;;;6.53;3.83;;;9.50;99.90;;;;;;5039023;28;20039;-71
2023/01/12 11:07:21;;;;;;;6.35;3.75;;;9.50;99.90;;;;;;5040791;28;20033;-71
2023/01/12 11:09:47;;;;;;;4.07;2.85;;;9.50;99.90;;;;;;5039207;28;20030;-72
2023/01/12 11:12:23;;;;;;;5.22;3.38;;;9.50;99.90;;;;;;5039400;28;20045;-68
2023/01/12 11:15:08;;;;;;;5.75;3.17;;;9.50;99.90;;;;;;5039305;28;20029;-72
2023/01/12 11:18:10;;;;;;;5.63;3.25;;;9.50;99.90;;;;;;5039123;28;20044;-70
2023/01/12 11:20:38;;;;;;;6.97;3.47;;;9.70;99.90;;;;;;5024774;28;20052;-72
2023/01/12 11:23:31;;;;;;;8.60;3.72;;;9.60;99.90;;;;;;5039488;28;20018;-71
2023/01/12 11:26:00;;;;;;;7.38;3.45;;;9.60;99.90;;;;;;5038779;28;20045;-69
2023/01/12 11:28:37;;;;;;;5.35;3.28;;;9.70;99.90;;;;;;5044017;28;20052;-71
2023/01/12 11:31:27;;;;;;;6.13;3.80;;;9.70;99.90;;;;;;5043904;28;20077;-68
2023/01/12 11:34:22;;;;;;;11.35;4.63;;;9.70;99.90;;;;;;5043823;28;20033;-71
2023/01/12 11:36:54;;;;;;;6.57;3.25;;;9.70;99.90;;;;;;5042607;28;20045;-68
2023/01/12 11:39:26;;;;;;;7.97;3.22;;;9.70;99.90;;;;;;5043863;28;20025;-69
2023/01/12 11:45:00;;;;;;;7.93;4.07;;;9.80;99.90;;;;;;5043381;28;20083;-73
2023/01/12 11:47:35;;;;;;;8.63;3.00;;;9.80;99.90;;;;;;5039379;28;20033;-69
2023/01/12 11:50:12;;;;;;;6.15;3.30;;;9.80;99.90;;;;;;5044017;28;20053;-70
2023/01/12 11:52:39;;;;;;;10.00;3.40;;;9.90;99.90;;;;;;5041130;28;20029;-73
2023/01/12 11:55:07;;;;;;;7.22;3.58;;;9.90;99.90;;;;;;5041850;28;20086;-71
2023/01/12 11:58:09;;;;;;;13.65;3.78;;;10.10;99.90;;;;;;5042877;28;20172;-74
2023/01/12 12:00:56;;;;;;;5.20;2.70;;;10.10;99.90;;;;;;5041791;28;20034;-70
2023/01/12 12:03:46;;;;;;;11.80;3.00;;;10.20;99.90;;;;;;5042882;28;20047;-68
2023/01/12 12:07:05;;;;;;;12.68;3.22;;;10.20;99.90;;;;;;5043176;28;20037;-71
2023/01/12 12:09:43;;;;;;;9.88;3.00;;;10.20;99.90;;;;;;5019915;28;20105;-71
2023/01/12 12:12:11;;;;;;;12.70;2.50;;;10.30;99.90;;;;;;5020747;28;20034;-71
2023/01/12 12:14:54;;;;;;;14.63;2.67;;;10.30;99.90;;;;;;5032789;28;20033;-70
2023/01/12 12:17:24;;;;;;;14.98;3.22;;;10.30;99.90;;;;;;5041703;28;20033;-71
2023/01/12 12:20:29;;;;;;;13.10;3.17;;;10.30;99.90;;;;;;5038331;28;20045;-69
2023/01/12 12:23:19;;;;;;;10.45;3.08;;;10.30;99.90;;;;;;5040785;28;20698;-68
2023/01/12 12:26:07;;;;;;;14.15;3.67;;;10.30;99.90;;;;;;5041890;28;20053;-69
2023/01/12 12:29:05;;;;;;;16.23;3.72;;;10.30;99.90;;;;;;5042185;28;20055;-69
2023/01/12 12:31:54;;;;;;;10.77;3.50;;;10.30;99.90;;;;;;5040405;28;20037;-71
2023/01/12 12:34:41;;;;;;;18.15;4.05;;;10.30;99.90;;;;;;5042399;28;20053;-70
2023/01/12 12:37:19;;;;;;;11.13;3.67;;;10.30;99.90;;;;;;5041827;28;20094;-69
2023/01/12 12:39:54;;;;;;;17.17;4.05;;;10.20;99.90;;;;;;5040296;28;20038;-70
2023/01/12 12:45:31;;;;;;;12.80;3.80;;;10.20;99.90;;;;;;5041694;28;20133;-70
2023/01/12 12:48:08;;;;;;;12.00;3.60;;;10.20;99.90;;;;;;5042173;28;20029;-71
2023/01/12 12:51:05;;;;;;;9.82;3.85;;;10.20;99.90;;;;;;5040074;28;20073;-68
2023/01/12 12:53:43;;;;;;;18.27;3.88;;;10.20;99.90;;;;;;5038805;28;20033;-68
2023/01/12 12:56:15;;;;;;;16.60;3.90;;;10.30;99.90;;;;;;5041730;28;20048;-69
2023/01/12 12:58:46;;;;;;;10.23;3.30;;;10.30;99.90;;;;;;5040270;28;20029;-72
2023/01/12 13:01:38;;;;;;;9.77;3.35;;;10.30;99.90;;;;;;5040593;28;20040;-71
2023/01/12 13:04:09;;;;;;;14.25;3.47;;;10.40;99.90;;;;;;5037150;28;20049;-71
2023/01/12 13:06:40;;;;;;;13.35;3.13;;;10.40;99.90;;;;;;5040087;28;20030;-71
2023/01/12 13:09:11;;;;;;;8.10;3.03;;;10.40;99.90;;;;;;5040496;28;20025;-71
2023/01/12 13:11:52;;;;;;;12.82;3.58;;;10.40;99.90;;;;;;5040034;28;20040;-71
2023/01/12 13:14:30;;;;;;;11.82;3.47;;;10.40;99.90;;;;;;5041493;28;20112;-72
2023/01/12 13:17:00;;;;;;;11.60;3.38;;;10.40;99.90;;;;;;5039604;28;20034;-71
2023/01/12 13:19:39;;;;;;;10.95;3.35;;;10.50;99.90;;;;;;5040901;28;20056;-70
2023/01/12 13:22:40;;;;;;;10.27;3.08;;;10.50;99.90;;;;;;5032043;28;20038;-71
2023/01/12 13:25:15;;;;;;;10.27;2.92;;;10.50;99.90;;;;;;5035954;28;20057;-70
2023/01/12 13:27:48;;;;;;;9.40;3.40;;;10.50;99.90;;;;;;5031813;28;20045;-70
2023/01/12 13:30:27;;;;;;;9.45;3.05;;;10.50;99.90;;;;;;5039754;28;20025;-70
2023/01/12 13:33:11;;;;;;;8.18;2.95;;;10.50;99.90;;;;;;5035601;28;20052;-71
2023/01/12 13:35:39;;;;;;;11.45;3.13;;;10.50;99.90;;;;;;5034495;28;20042;-69
2023/01/12 13:38:42;;;;;;;12.63;3.05;;;10.50;99.90;;;;;;5035973;28;20033;-69
2023/01/12 13:43:13;;;;;;;8.43;3.05;;;10.50;99.90;;;;;;5036982;28;20042;-69
2023/01/12 13:44:06;;;;;;;5.63;2.55;;;10.50;99.90;;;;;;5030073;28;20068;-74
2023/01/12 13:46:45;;;;;;;6.20;2.80;;;10.50;99.90;;;;;;5038405;28;20596;-71
2023/01/12 13:49:51;;;;;;;7.63;3.00;;;10.40;99.90;;;;;;5039784;28;20030;-69
2023/01/12 13:52:28;;;;;;;10.55;2.97;;;10.50;99.90;;;;;;5037361;28;20033;-71
2023/01/12 13:54:54;;;;;;;14.40;3.38;;;10.50;99.90;;;;;;5037194;28;20026;-70